Time;durP1;ratioP1;P1;durP2;ratioP2;P2;SDS_P1;SDS_P2;PMS_P1;PMS_P2;Temp;Humidity;BMP_temperature;BMP_pressure;BME280_temperature;BME280_humidity;BME280_pressure;Samples;Min_cycle;Max_cycle;Signal;HPM_P1;HPM_P2
2021/06/09 00:01:57;;;;;;;324.57;310.47;;;14.10;99.90;;;;;;6216494;23;20891;-81
2021/06/09 00:04:28;;;;;;;313.37;300.37;;;14.00;99.90;;;;;;6215226;23;20436;-81
2021/06/09 00:06:54;;;;;;;318.70;304.27;;;14.00;99.90;;;;;;6216830;23;20499;-82
2021/06/09 00:09:24;;;;;;;299.83;286.57;;;14.00;99.90;;;;;;6226019;23;20444;-81
2021/06/09 00:11:55;;;;;;;329.67;315.37;;;14.00;99.90;;;;;;6216818;23;20491;-81
2021/06/09 00:14:23;;;;;;;327.03;312.80;;;13.90;99.90;;;;;;6226314;23;20555;-81
2021/06/09 00:16:50;;;;;;;329.27;315.30;;;14.00;99.90;;;;;;6216803;23;20405;-81
2021/06/09 00:19:18;;;;;;;337.27;323.27;;;13.90;99.90;;;;;;6215441;23;20404;-81
2021/06/09 00:21:48;;;;;;;330.07;316.57;;;13.90;99.90;;;;;;6216352;23;20404;-82
2021/06/09 00:24:17;;;;;;;306.63;293.60;;;13.90;99.90;;;;;;6216085;23;20427;-81
2021/06/09 00:26:43;;;;;;;281.13;268.97;;;13.80;99.90;;;;;;6226219;23;20900;-81
2021/06/09 00:29:13;;;;;;;321.80;307.23;;;13.80;99.90;;;;;;6226814;23;20411;-81
2021/06/09 00:31:42;;;;;;;327.87;313.07;;;13.70;99.90;;;;;;6226825;23;20431;-81
2021/06/09 00:34:11;;;;;;;338.93;324.07;;;13.60;99.90;;;;;;6224858;23;20436;-82
2021/06/09 00:36:39;;;;;;;329.07;314.17;;;13.70;99.90;;;;;;6215870;23;20401;-81
2021/06/09 00:39:09;;;;;;;351.33;335.90;;;13.60;99.90;;;;;;6216534;23;20396;-81
2021/06/09 00:41:37;;;;;;;357.83;342.37;;;13.60;99.90;;;;;;6216628;23;20397;-82
2021/06/09 00:44:04;;;;;;;370.13;352.13;;;13.60;99.90;;;;;;6216352;23;20432;-81
2021/06/09 00:46:33;;;;;;;360.77;343.17;;;13.70;99.90;;;;;;6216620;23;20427;-82
2021/06/09 00:48:59;;;;;;;369.57;352.50;;;13.70;99.90;;;;;;6224817;23;20420;-82
2021/06/09 00:51:26;;;;;;;374.03;356.87;;;13.80;99.90;;;;;;6216527;23;20423;-82
2021/06/09 00:53:56;;;;;;;366.63;350.00;;;13.70;99.90;;;;;;6226359;23;20404;-81
2021/06/09 00:56:25;;;;;;;361.10;343.93;;;13.70;99.90;;;;;;6216265;23;20499;-81
2021/06/09 00:58:54;;;;;;;354.07;337.07;;;13.60;99.90;;;;;;6215899;23;20891;-81
2021/06/09 01:01:31;;;;;;;351.10;333.77;;;13.50;99.90;;;;;;6216319;23;20486;-81
2021/06/09 01:04:04;;;;;;;344.20;327.93;;;13.60;99.90;;;;;;6224510;23;20459;-81
2021/06/09 01:06:36;;;;;;;330.73;315.90;;;13.50;99.90;;;;;;6216257;23;20771;-81
2021/06/09 01:09:08;;;;;;;328.93;313.57;;;13.50;99.90;;;;;;6215778;23;20514;-81
2021/06/09 01:11:41;;;;;;;349.80;332.20;;;13.50;99.90;;;;;;6225883;23;20397;-81
2021/06/09 01:14:09;;;;;;;344.87;328.60;;;13.60;99.90;;;;;;6225681;23;20938;-81
2021/06/09 01:16:35;;;;;;;325.27;310.37;;;13.50;99.90;;;;;;6216114;23;20400;-81
2021/06/09 01:19:04;;;;;;;336.47;321.07;;;13.40;99.90;;;;;;6224437;23;20483;-81
2021/06/09 01:21:37;;;;;;;318.77;303.80;;;13.50;99.90;;;;;;6216149;23;20396;-81
2021/06/09 01:24:04;;;;;;;276.20;262.03;;;13.40;99.90;;;;;;6215937;23;20428;-81
2021/06/09 01:26:46;;;;;;;280.83;266.97;;;13.40;99.90;;;;;;6216009;23;20400;-81
2021/06/09 01:29:17;;;;;;;290.23;274.90;;;13.40;99.90;;;;;;6226070;23;20404;-81
2021/06/09 01:31:44;;;;;;;277.93;263.40;;;13.20;99.90;;;;;;6216107;23;20465;-81
2021/06/09 01:34:14;;;;;;;279.93;265.47;;;13.20;99.90;;;;;;6213901;23;20416;-81
2021/06/09 01:36:44;;;;;;;289.70;274.70;;;13.20;99.90;;;;;;6215925;23;20818;-81
2021/06/09 01:39:19;;;;;;;297.00;281.50;;;13.10;99.90;;;;;;6215478;23;20400;-81
2021/06/09 01:41:58;;;;;;;251.17;238.13;;;13.30;99.90;;;;;;6225904;23;20403;-81
2021/06/09 01:44:26;;;;;;;237.23;224.40;;;13.20;99.90;;;;;;6225585;23;20462;-81
2021/06/09 01:46:57;;;;;;;256.87;243.87;;;13.10;99.90;;;;;;6225922;23;20726;-81
2021/06/09 01:49:26;;;;;;;270.30;256.00;;;13.20;99.90;;;;;;6214318;23;20396;-81
2021/06/09 01:52:17;;;;;;;264.93;250.33;;;13.20;99.90;;;;;;6215817;23;20404;-81
2021/06/09 01:54:44;;;;;;;251.63;238.33;;;13.10;99.90;;;;;;6210190;23;20411;-81
2021/06/09 01:57:12;;;;;;;269.17;254.93;;;13.00;99.90;;;;;;6226010;23;20471;-81
2021/06/09 01:59:43;;;;;;;272.60;257.63;;;13.00;99.90;;;;;;6225425;23;20821;-81
2021/06/09 02:02:15;;;;;;;281.13;263.97;;;13.00;99.90;;;;;;6215414;23;20396;-80
2021/06/09 02:04:42;;;;;;;287.23;270.50;;;12.90;99.90;;;;;;6214159;23;20489;-81
2021/06/09 02:07:27;;;;;;;285.43;269.67;;;12.90;99.90;;;;;;6215611;23;20400;-81
2021/06/09 02:09:56;;;;;;;284.60;268.63;;;12.90;99.90;;;;;;6206471;23;20447;-81
2021/06/09 02:12:24;;;;;;;295.83;279.00;;;12.90;99.90;;;;;;6225749;23;20404;-81
2021/06/09 02:14:52;;;;;;;296.57;279.63;;;12.80;99.90;;;;;;6215573;23;20488;-80
2021/06/09 02:17:18;;;;;;;289.70;273.30;;;12.90;99.90;;;;;;6224886;23;20404;-81
2021/06/09 02:19:45;;;;;;;282.70;267.17;;;12.80;99.90;;;;;;6225010;23;20450;-81
2021/06/09 02:22:13;;;;;;;277.40;262.53;;;12.90;99.90;;;;;;6225706;23;20412;-81
2021/06/09 02:24:41;;;;;;;257.70;242.63;;;12.90;99.90;;;;;;6215404;23;20473;-81
2021/06/09 02:27:07;;;;;;;269.47;254.37;;;12.90;99.90;;;;;;6224995;23;20423;-80
2021/06/09 02:29:36;;;;;;;273.73;257.77;;;12.90;99.90;;;;;;6215496;23;20404;-81
2021/06/09 02:32:03;;;;;;;269.77;255.07;;;12.80;99.90;;;;;;6215395;23;20432;-80
2021/06/09 02:34:35;;;;;;;287.13;269.60;;;12.90;99.90;;;;;;6224423;23;20404;-80
2021/06/09 02:37:02;;;;;;;292.57;274.73;;;13.10;99.90;;;;;;6215518;23;20458;-80
2021/06/09 02:39:28;;;;;;;299.77;282.47;;;13.20;99.90;;;;;;6225480;23;20419;-80
2021/06/09 02:41:57;;;;;;;305.90;287.93;;;13.20;99.90;;;;;;6224907;23;20408;-81
2021/06/09 02:44:24;;;;;;;285.77;268.27;;;13.20;99.90;;;;;;6215568;23;20795;-80
2021/06/09 02:46:53;;;;;;;289.53;273.67;;;13.10;99.90;;;;;;6224949;23;20403;-80
2021/06/09 02:49:24;;;;;;;282.37;266.97;;;13.10;99.90;;;;;;6223810;23;20412;-80
2021/06/09 02:51:57;;;;;;;249.30;234.13;;;13.00;99.90;;;;;;6225400;23;20797;-81
2021/06/09 02:54:33;;;;;;;238.20;223.53;;;12.90;99.90;;;;;;6225362;23;20424;-81
2021/06/09 02:57:05;;;;;;;231.93;218.50;;;12.90;99.90;;;;;;6215528;23;20479;-80
2021/06/09 02:59:56;;;;;;;243.90;229.30;;;12.80;99.90;;;;;;6215067;23;20411;-81
2021/06/09 03:02:33;;;;;;;235.17;221.83;;;12.90;99.90;;;;;;6214291;23;20400;-80
2021/06/09 03:05:06;;;;;;;244.47;229.17;;;12.90;99.90;;;;;;6215288;23;20431;-80
2021/06/09 03:07:41;;;;;;;254.73;240.17;;;13.00;99.90;;;;;;6225514;23;20706;-81
2021/06/09 03:10:14;;;;;;;242.97;229.37;;;12.90;99.90;;;;;;6215039;23;20431;-81
2021/06/09 03:12:48;;;;;;;251.47;236.57;;;12.90;99.90;;;;;;6215526;23;20450;-80
2021/06/09 03:15:27;;;;;;;246.83;232.63;;;13.00;99.90;;;;;;6215275;23;20404;-81
2021/06/09 03:17:58;;;;;;;265.47;249.60;;;13.00;99.90;;;;;;6213888;23;20399;-80
2021/06/09 03:20:34;;;;;;;272.00;255.93;;;12.80;99.90;;;;;;6224999;23;20422;-81
2021/06/09 03:23:06;;;;;;;262.07;247.73;;;12.80;99.90;;;;;;6215295;23;20427;-76
2021/06/09 03:25:38;;;;;;;255.43;241.03;;;12.80;99.90;;;;;;6215043;23;20516;-76
2021/06/09 03:28:19;;;;;;;247.33;233.10;;;12.70;99.90;;;;;;6215380;23;20498;-81
2021/06/09 03:30:53;;;;;;;256.63;241.17;;;12.70;99.90;;;;;;6214656;23;20483;-79
2021/06/09 03:33:22;;;;;;;246.73;232.90;;;12.80;99.90;;;;;;6223638;23;20450;-78
2021/06/09 03:35:53;;;;;;;245.03;231.23;;;12.70;99.90;;;;;;6215334;23;20396;-79
2021/06/09 03:38:27;;;;;;;253.67;240.10;;;12.60;99.90;;;;;;6215371;23;20396;-79
2021/06/09 03:40:59;;;;;;;249.97;236.77;;;12.60;99.90;;;;;;6225438;23;20410;-79
2021/06/09 03:43:28;;;;;;;237.13;224.30;;;12.60;99.90;;;;;;6215807;23;20396;-79
2021/06/09 03:45:56;;;;;;;259.17;244.43;;;12.50;99.90;;;;;;6216784;23;20973;-79
2021/06/09 03:48:28;;;;;;;247.43;233.80;;;12.50;99.90;;;;;;6215462;23;20492;-79
2021/06/09 03:50:58;;;;;;;234.60;222.20;;;12.60;99.90;;;;;;6217196;23;20411;-79
2021/06/09 03:53:26;;;;;;;241.60;228.00;;;12.70;99.90;;;;;;6216968;23;20496;-80
2021/06/09 03:55:57;;;;;;;243.63;230.47;;;12.60;99.90;;;;;;6216692;23;20439;-81
2021/06/09 03:58:27;;;;;;;257.17;243.57;;;12.70;99.90;;;;;;6226511;23;20491;-80
2021/06/09 04:00:55;;;;;;;247.17;233.47;;;12.80;99.90;;;;;;6226389;23;20464;-80
2021/06/09 04:03:28;;;;;;;247.83;233.47;;;12.80;99.90;;;;;;6215056;23;20462;-80
2021/06/09 04:06:00;;;;;;;254.17;239.90;;;12.80;99.90;;;;;;6216823;23;20502;-81
2021/06/09 04:08:28;;;;;;;263.10;249.00;;;12.80;99.90;;;;;;6226803;22;20404;-80
2021/06/09 04:10:55;;;;;;;245.90;232.47;;;12.80;99.90;;;;;;6226400;23;20413;-80
2021/06/09 04:13:23;;;;;;;277.73;261.53;;;12.80;99.90;;;;;;6216924;23;20407;-80
2021/06/09 04:15:52;;;;;;;290.53;272.83;;;13.10;99.90;;;;;;6226385;23;20413;-81
2021/06/09 04:18:19;;;;;;;323.87;305.47;;;13.40;99.90;;;;;;6215604;23;20400;-81
2021/06/09 04:20:48;;;;;;;303.73;287.07;;;13.50;99.90;;;;;;6216406;23;20462;-81
2021/06/09 04:23:15;;;;;;;303.03;286.27;;;13.40;99.90;;;;;;6226442;23;20412;-81
2021/06/09 04:26:21;;;;;;;;;;;;;;;;;;;;;
2021/06/09 04:28:48;;;;;;;308.07;290.57;;;13.50;99.90;;;;;;6164226;23;20461;-83
2021/06/09 04:31:17;;;;;;;298.93;283.37;;;13.60;99.90;;;;;;6216522;23;20436;-82
2021/06/09 04:33:46;;;;;;;305.73;288.40;;;13.70;99.90;;;;;;6227229;23;20411;-85
2021/06/09 04:36:13;;;;;;;299.87;282.80;;;13.70;99.90;;;;;;6217870;23;20400;-83
2021/06/09 04:38:40;;;;;;;300.33;284.13;;;13.80;99.90;;;;;;6226153;23;20412;-79
2021/06/09 04:41:07;;;;;;;302.60;286.03;;;13.90;99.90;;;;;;6216203;23;20483;-78
2021/06/09 04:43:34;;;;;;;301.73;286.17;;;13.90;99.90;;;;;;6226240;23;20407;-78
2021/06/09 04:46:01;;;;;;;315.10;298.10;;;14.10;99.90;;;;;;6215864;23;20459;-78
2021/06/09 04:48:29;;;;;;;311.40;293.93;;;14.20;99.90;;;;;;6214702;23;20396;-79
2021/06/09 04:50:55;;;;;;;305.97;288.80;;;14.30;99.90;;;;;;6215374;23;20444;-78
2021/06/09 04:53:22;;;;;;;309.67;292.07;;;14.40;99.90;;;;;;6226014;23;20408;-79
2021/06/09 04:55:50;;;;;;;304.57;288.50;;;14.50;99.90;;;;;;6226065;23;20458;-82
2021/06/09 04:58:20;;;;;;;281.83;266.27;;;14.60;99.90;;;;;;6222135;23;20420;-81
2021/06/09 05:00:48;;;;;;;284.13;268.03;;;14.70;99.90;;;;;;6226083;23;20404;-82
2021/06/09 05:03:15;;;;;;;253.63;238.97;;;14.80;99.90;;;;;;6214755;23;20768;-81
2021/06/09 05:05:43;;;;;;;251.13;236.63;;;14.80;99.90;;;;;;6225653;23;20986;-81
2021/06/09 05:08:09;;;;;;;254.60;239.60;;;14.90;99.90;;;;;;6215739;23;20715;-81
2021/06/09 05:10:39;;;;;;;273.63;258.33;;;15.10;99.90;;;;;;6214995;23;20443;-81
2021/06/09 05:13:08;;;;;;;219.07;206.37;;;15.20;99.90;;;;;;6225374;23;20736;-81
2021/06/09 05:15:39;;;;;;;299.53;283.53;;;15.30;99.90;;;;;;6225407;23;20396;-81
2021/06/09 05:18:10;;;;;;;270.73;255.93;;;15.60;99.90;;;;;;6214493;23;20407;-81
2021/06/09 05:20:39;;;;;;;204.83;191.23;;;15.90;99.90;;;;;;6225782;23;20407;-82
2021/06/09 05:23:14;;;;;;;89.30;77.67;;;16.20;99.90;;;;;;6225966;23;20408;-82
2021/06/09 05:25:42;;;;;;;69.67;45.47;;;16.60;99.90;;;;;;6225421;23;21129;-82
2021/06/09 05:28:11;;;;;;;72.63;39.40;;;16.90;99.90;;;;;;6215500;23;20407;-77
2021/06/09 05:30:39;;;;;;;70.40;32.90;;;17.10;99.90;;;;;;6216189;23;20467;-77
2021/06/09 05:33:07;;;;;;;76.77;34.87;;;17.60;99.90;;;;;;6214241;23;20401;-80
2021/06/09 05:35:33;;;;;;;75.77;33.40;;;18.00;99.90;;;;;;6215596;23;20400;-76
2021/06/09 05:38:02;;;;;;;79.33;32.87;;;18.30;99.90;;;;;;6215850;23;20426;-78
2021/06/09 05:40:30;;;;;;;80.70;31.80;;;18.30;99.90;;;;;;6215537;23;20400;-81
2021/06/09 05:43:04;;;;;;;81.80;31.53;;;18.60;99.90;;;;;;6215898;23;20404;-81
2021/06/09 05:45:32;;;;;;;86.07;34.87;;;19.10;99.90;;;;;;6225036;23;20531;-82
2021/06/09 05:51:10;;;;;;;95.63;33.47;;;19.90;99.90;;;;;;6161328;23;20780;-79
2021/06/09 05:53:37;;;;;;;95.03;35.23;;;20.30;99.90;;;;;;6214963;23;20912;-81
2021/06/09 05:56:08;;;;;;;90.73;32.10;;;20.40;99.90;;;;;;6214808;23;20415;-81
2021/06/09 05:58:42;;;;;;;86.40;33.20;;;20.70;99.90;;;;;;6214925;23;20712;-82
2021/06/09 06:01:32;;;;;;;87.27;32.73;;;21.10;99.90;;;;;;6225554;23;20801;-83
2021/06/09 06:04:01;;;;;;;96.07;37.07;;;21.30;99.90;;;;;;6224466;23;20407;-82
2021/06/09 06:06:30;;;;;;;90.90;36.50;;;21.40;99.90;;;;;;6214816;23;20436;-80
2021/06/09 06:09:02;;;;;;;92.43;37.67;;;21.70;97.40;;;;;;6215496;23;20436;-82
2021/06/09 06:11:41;;;;;;;99.07;38.40;;;22.00;90.80;;;;;;6225524;23;20404;-82
2021/06/09 06:14:10;;;;;;;92.20;37.90;;;22.20;89.10;;;;;;6224865;23;20434;-82
2021/06/09 06:16:38;;;;;;;95.00;35.30;;;22.20;82.30;;;;;;6224942;23;20733;-81
2021/06/09 06:19:05;;;;;;;96.10;35.33;;;22.00;84.30;;;;;;6213488;23;20415;-81
2021/06/09 06:21:32;;;;;;;98.63;37.70;;;22.50;79.00;;;;;;6215226;23;20432;-83
2021/06/09 06:24:00;;;;;;;94.87;36.77;;;22.80;74.10;;;;;;6224765;23;20898;-82
2021/06/09 06:26:32;;;;;;;94.13;35.90;;;22.70;72.60;;;;;;6215225;23;20432;-82
2021/06/09 06:29:01;;;;;;;96.80;36.57;;;22.80;75.70;;;;;;6215042;23;20407;-82
2021/06/09 06:31:35;;;;;;;98.70;37.23;;;23.40;74.80;;;;;;6224923;23;20435;-82
2021/06/09 06:34:03;;;;;;;98.60;37.80;;;23.60;60.40;;;;;;6213791;23;20412;-82
2021/06/09 06:36:31;;;;;;;95.17;35.40;;;23.70;57.50;;;;;;6224998;23;20396;-81
2021/06/09 06:38:58;;;;;;;101.70;36.17;;;23.20;56.20;;;;;;6215225;23;20397;-81
2021/06/09 06:41:28;;;;;;;95.57;35.57;;;23.10;64.70;;;;;;6214725;23;20401;-79
2021/06/09 06:43:56;;;;;;;98.23;36.20;;;23.60;59.50;;;;;;6225011;23;20400;-80
2021/06/09 06:46:23;;;;;;;91.87;35.40;;;24.00;54.80;;;;;;6215155;23;20440;-79
2021/06/09 06:48:53;;;;;;;95.13;36.50;;;24.00;54.30;;;;;;6213537;23;20400;-79
2021/06/09 06:51:20;;;;;;;95.67;36.00;;;23.70;51.90;;;;;;6215598;23;20530;-78
2021/06/09 06:53:48;;;;;;;98.73;39.90;;;23.70;50.40;;;;;;6214893;23;20396;-79
2021/06/09 06:56:15;;;;;;;100.13;39.87;;;23.60;55.70;;;;;;6225185;23;20455;-78
2021/06/09 06:58:48;;;;;;;96.40;39.33;;;24.00;49.90;;;;;;6215264;23;20455;-79
2021/06/09 07:01:17;;;;;;;101.40;36.77;;;24.50;48.60;;;;;;6215387;23;20734;-79
2021/06/09 07:03:43;;;;;;;102.20;53.30;;;24.10;46.60;;;;;;6213932;23;20479;-79
2021/06/09 07:06:10;;;;;;;99.97;42.73;;;23.90;51.50;;;;;;6215284;23;20406;-79
2021/06/09 07:08:37;;;;;;;99.40;42.53;;;23.90;52.40;;;;;;6211760;23;20878;-79
2021/06/09 07:11:04;;;;;;;102.90;40.27;;;23.80;48.50;;;;;;6212494;23;20907;-79
2021/06/09 07:13:32;;;;;;;97.90;39.27;;;24.10;47.70;;;;;;6222782;23;20420;-79
2021/06/09 07:16:01;;;;;;;102.37;51.07;;;24.20;41.60;;;;;;6223147;23;20416;-78
2021/06/09 07:18:30;;;;;;;104.90;62.13;;;24.20;49.40;;;;;;6212616;23;20406;-78
2021/06/09 07:20:57;;;;;;;104.73;68.40;;;24.30;48.70;;;;;;6215810;23;20400;-79
2021/06/09 07:23:24;;;;;;;108.70;75.67;;;24.50;43.90;;;;;;6214667;23;20895;-78
2021/06/09 07:25:51;;;;;;;110.57;76.00;;;24.30;44.50;;;;;;6225309;23;20436;-78
2021/06/09 07:28:19;;;;;;;107.40;71.77;;;24.50;44.50;;;;;;6215053;23;20515;-79
2021/06/09 07:30:46;;;;;;;105.33;67.30;;;24.50;39.70;;;;;;6214735;23;20432;-78
2021/06/09 07:33:14;;;;;;;105.27;70.30;;;24.60;45.50;;;;;;6213050;23;20401;-79
2021/06/09 07:35:43;;;;;;;110.97;73.10;;;24.70;39.70;;;;;;6215079;23;20400;-80
2021/06/09 07:38:15;;;;;;;105.70;66.87;;;24.60;37.00;;;;;;6214640;23;20400;-82
2021/06/09 07:40:44;;;;;;;104.60;59.37;;;24.40;37.60;;;;;;6214628;23;20410;-81
2021/06/09 07:43:15;;;;;;;99.10;55.87;;;24.30;37.30;;;;;;6224935;23;20726;-81
2021/06/09 07:45:42;;;;;;;103.50;54.80;;;24.60;39.60;;;;;;6224629;23;20466;-81
2021/06/09 07:48:11;;;;;;;96.67;47.43;;;24.50;36.70;;;;;;6214134;23;20715;-81
2021/06/09 07:50:45;;;;;;;104.87;55.73;;;24.90;36.70;;;;;;6215269;23;20491;-81
2021/06/09 07:53:13;;;;;;;96.27;48.97;;;24.90;30.60;;;;;;6215599;23;20458;-81
2021/06/09 07:55:42;;;;;;;103.97;64.00;;;25.30;29.10;;;;;;6225004;23;20415;-80
2021/06/09 07:58:09;;;;;;;102.60;59.77;;;25.50;29.60;;;;;;6214804;23;20401;-80
2021/06/09 08:00:36;;;;;;;96.37;51.43;;;25.60;26.30;;;;;;6215676;23;20454;-80
2021/06/09 08:03:03;;;;;;;101.73;54.10;;;25.40;26.30;;;;;;6213753;23;20410;-81
2021/06/09 08:05:30;;;;;;;147.83;134.90;;;25.30;23.40;;;;;;6215242;23;20762;-80
2021/06/09 08:07:58;;;;;;;147.50;134.43;;;25.50;22.90;;;;;;6215300;23;20407;-80
2021/06/09 08:10:24;;;;;;;149.57;136.53;;;25.50;24.60;;;;;;6215039;23;20523;-80
2021/06/09 08:12:51;;;;;;;113.67;98.60;;;25.80;21.30;;;;;;6215209;23;20406;-81
2021/06/09 08:15:18;;;;;;;99.53;70.83;;;25.90;18.90;;;;;;6224866;23;20482;-81
2021/06/09 08:17:45;;;;;;;101.40;74.50;;;26.70;19.60;;;;;;6213882;23;20465;-81
2021/06/09 08:20:14;;;;;;;121.77;109.60;;;27.00;15.10;;;;;;6215126;23;20482;-81
2021/06/09 08:22:44;;;;;;;129.90;117.47;;;27.40;11.60;;;;;;6215438;23;20382;-81
2021/06/09 08:25:13;;;;;;;129.53;116.13;;;27.10;13.70;;;;;;6215244;23;20754;-80
2021/06/09 08:27:40;;;;;;;162.80;148.60;;;26.70;13.00;;;;;;6214706;23;20406;-81
2021/06/09 08:30:07;;;;;;;162.50;148.40;;;26.50;14.80;;;;;;6214487;23;20744;-81
2021/06/09 08:32:34;;;;;;;170.33;156.47;;;27.00;15.00;;;;;;6213678;23;20375;-80
2021/06/09 08:35:00;;;;;;;155.07;141.77;;;26.80;16.80;;;;;;6214974;23;20671;-81
2021/06/09 08:37:27;;;;;;;163.90;150.00;;;26.90;16.80;;;;;;6216854;23;20397;-81
2021/06/09 08:39:54;;;;;;;142.27;128.43;;;27.10;14.80;;;;;;6216535;23;20467;-81
2021/06/09 08:42:25;;;;;;;150.50;136.60;;;27.00;13.80;;;;;;6216409;23;20431;-81
2021/06/09 08:45:13;;;;;;;146.30;133.13;;;27.00;14.40;;;;;;6216239;23;20424;-93
2021/06/09 08:47:41;;;;;;;126.97;114.33;;;27.40;12.70;;;;;;6214828;23;20487;-82
2021/06/09 08:50:10;;;;;;;132.50;119.70;;;27.00;11.90;;;;;;6216290;23;20781;-82
2021/06/09 08:52:43;;;;;;;131.27;118.50;;;27.10;13.40;;;;;;6216127;23;20400;-83
2021/06/09 08:55:10;;;;;;;114.37;102.10;;;27.20;13.10;;;;;;6216019;23;20436;-82
2021/06/09 08:57:39;;;;;;;110.03;98.40;;;27.00;13.50;;;;;;6216351;23;20479;-82
2021/06/09 09:00:07;;;;;;;110.50;97.60;;;27.60;9.50;;;;;;6215984;23;20892;-82
2021/06/09 09:02:33;;;;;;;118.90;106.30;;;27.50;12.50;;;;;;6224423;23;20491;-82
2021/06/09 09:05:00;;;;;;;103.47;90.60;;;27.80;11.80;;;;;;6216312;23;20520;-82
2021/06/09 09:07:28;;;;;;;106.53;79.63;;;27.70;11.40;;;;;;6215888;23;20478;-82
2021/06/09 09:09:56;;;;;;;109.07;88.30;;;27.70;9.60;;;;;;6215790;23;20903;-82
2021/06/09 09:12:22;;;;;;;130.73;117.60;;;28.40;9.40;;;;;;6216364;23;20428;-82
2021/06/09 09:14:50;;;;;;;126.97;114.00;;;28.40;8.60;;;;;;6216017;23;20470;-82
2021/06/09 09:17:17;;;;;;;106.23;87.97;;;28.90;5.60;;;;;;6216099;23;20431;-83
2021/06/09 09:19:45;;;;;;;122.07;110.07;;;28.40;5.90;;;;;;6214523;23;20375;-82
2021/06/09 09:22:18;;;;;;;117.50;105.30;;;28.80;7.20;;;;;;6216112;23;20401;-82
2021/06/09 09:24:47;;;;;;;133.40;120.83;;;29.20;4.10;;;;;;6216309;23;20435;-82
2021/06/09 09:27:17;;;;;;;132.80;120.40;;;30.00;1.00;;;;;;6214186;23;20483;-81
2021/06/09 09:32:38;;;;;;;135.40;122.60;;;29.60;2.80;;;;;;5167299;27;20289;-81
2021/06/09 09:35:07;;;;;;;140.57;127.77;;;29.30;1.00;;;;;;5151474;27;20495;-80
2021/06/09 09:37:33;;;;;;;142.17;129.30;;;29.00;1.00;;;;;;5151115;27;20426;-81
2021/06/09 09:40:14;;;;;;;133.33;120.87;;;29.10;1.00;;;;;;5151291;27;20443;-82
2021/06/09 09:42:41;;;;;;;125.77;113.80;;;29.10;2.50;;;;;;5151661;27;20946;-79
2021/06/09 09:45:26;;;;;;;132.50;120.40;;;28.40;3.30;;;;;;5151304;27;20453;-80
2021/06/09 09:48:09;;;;;;;131.70;120.00;;;29.20;2.10;;;;;;5149737;27;20443;-81
2021/06/09 09:50:37;;;;;;;109.00;97.77;;;29.30;1.00;;;;;;5151254;27;20471;-81
2021/06/09 09:53:18;;;;;;;126.00;114.33;;;28.60;1.00;;;;;;5151295;27;20508;-81
2021/06/09 09:55:59;;;;;;;120.43;108.53;;;29.70;1.00;;;;;;5151057;27;20446;-82
2021/06/09 09:58:26;;;;;;;129.67;117.87;;;29.50;1.00;;;;;;5150223;27;20492;-82
2021/06/09 10:00:53;;;;;;;128.73;116.97;;;29.00;1.00;;;;;;5151460;27;20454;-82
2021/06/09 10:03:21;;;;;;;128.00;115.73;;;28.90;1.00;;;;;;5149994;27;20510;-82
2021/06/09 10:05:48;;;;;;;194.90;180.53;;;29.50;1.00;;;;;;5151465;27;20422;-82
2021/06/09 10:08:14;;;;;;;126.10;114.50;;;29.30;1.00;;;;;;5151205;27;20512;-82
2021/06/09 10:10:41;;;;;;;128.13;116.23;;;28.70;1.00;;;;;;5151146;27;20463;-81
2021/06/09 10:13:09;;;;;;;116.43;105.13;;;28.80;1.00;;;;;;5151184;27;20807;-80
2021/06/09 10:15:37;;;;;;;118.67;107.30;;;29.40;1.00;;;;;;5140602;27;20468;-81
2021/06/09 10:18:27;;;;;;;119.87;108.47;;;29.30;1.30;;;;;;5129273;27;20426;-81
2021/06/09 10:20:55;;;;;;;108.83;97.97;;;29.20;1.00;;;;;;5139633;27;20512;-81
2021/06/09 10:23:32;;;;;;;101.57;91.07;;;28.40;1.00;;;;;;5151317;27;20435;-81
2021/06/09 10:26:10;;;;;;;95.67;85.47;;;29.00;1.00;;;;;;5138555;27;20422;-81
2021/06/09 10:28:56;;;;;;;123.23;111.83;;;30.10;1.00;;;;;;5130253;28;20459;-81
2021/06/09 10:31:23;;;;;;;119.03;107.67;;;30.00;1.00;;;;;;5130174;27;20476;-81
2021/06/09 10:33:51;;;;;;;121.77;110.00;;;29.80;1.00;;;;;;5128973;28;20422;-81
2021/06/09 10:36:18;;;;;;;122.77;111.07;;;30.20;1.00;;;;;;5149275;27;20462;-81
2021/06/09 10:38:45;;;;;;;120.40;109.00;;;30.50;1.00;;;;;;5150803;27;20499;-82
2021/06/09 10:41:13;;;;;;;128.53;116.67;;;30.40;1.00;;;;;;5133650;27;20468;-81
2021/06/09 10:43:42;;;;;;;131.20;119.27;;;30.40;1.00;;;;;;5136313;27;20423;-81
2021/06/09 10:46:10;;;;;;;145.30;132.93;;;31.70;1.00;;;;;;5132868;27;20483;-81
2021/06/09 10:48:41;;;;;;;133.53;121.57;;;30.70;1.00;;;;;;5134745;27;21077;-82
2021/06/09 10:51:09;;;;;;;168.23;154.63;;;30.70;1.00;;;;;;5134460;27;21049;-82
2021/06/09 10:53:37;;;;;;;134.27;122.10;;;29.20;1.00;;;;;;5131730;27;20430;-82
2021/06/09 10:56:04;;;;;;;109.37;97.83;;;28.00;1.00;;;;;;5135274;27;20451;-82
2021/06/09 10:58:31;;;;;;;93.67;70.90;;;28.10;1.90;;;;;;5134686;27;20859;-81
2021/06/09 11:00:58;;;;;;;93.30;74.23;;;28.10;1.00;;;;;;5135397;27;20812;-81
2021/06/09 11:03:26;;;;;;;92.87;75.13;;;28.70;1.00;;;;;;5133348;27;20487;-81
2021/06/09 11:05:52;;;;;;;99.93;89.17;;;30.00;1.00;;;;;;5135099;27;20457;-81
2021/06/09 11:08:20;;;;;;;103.17;92.13;;;30.30;1.00;;;;;;5129845;27;20445;-81
2021/06/09 11:10:49;;;;;;;119.03;107.47;;;30.80;1.00;;;;;;5124338;27;20486;-82
2021/06/09 11:13:28;;;;;;;111.70;100.83;;;31.30;1.00;;;;;;5114608;28;20491;-82
2021/06/09 11:16:09;;;;;;;127.30;115.60;;;31.80;1.00;;;;;;5114517;28;20448;-82
2021/06/09 11:18:45;;;;;;;122.90;111.50;;;30.80;1.00;;;;;;5129111;27;20777;-83
2021/06/09 11:21:15;;;;;;;121.40;109.90;;;31.40;1.00;;;;;;5122424;27;20448;-82
2021/06/09 12:43:48;;;;;;;114.27;103.13;;;32.20;1.00;;;;;;4953948;28;20488;-84
2021/06/09 12:46:26;;;;;;;116.63;105.77;;;32.70;1.00;;;;;;4955381;29;20461;-83
2021/06/09 12:48:53;;;;;;;113.80;102.63;;;32.80;1.00;;;;;;4954197;29;20470;-86
2021/06/09 12:51:19;;;;;;;123.63;112.23;;;32.50;1.00;;;;;;4957142;29;20462;-84
2021/06/09 12:53:46;;;;;;;123.53;112.07;;;33.10;1.00;;;;;;4958289;29;20463;-85
2021/06/09 12:56:12;;;;;;;136.07;124.00;;;33.20;1.00;;;;;;4951324;29;20455;-83
2021/06/09 12:58:39;;;;;;;136.97;125.17;;;33.60;1.00;;;;;;4954443;28;20487;-83
2021/06/09 13:01:08;;;;;;;145.20;132.90;;;34.40;1.00;;;;;;4953669;28;20887;-83
2021/06/09 13:03:37;;;;;;;141.17;129.27;;;33.60;1.00;;;;;;4952497;28;20547;-84
2021/06/09 13:06:05;;;;;;;129.33;117.87;;;33.80;1.00;;;;;;4953524;28;20455;-84
2021/06/09 13:08:34;;;;;;;129.33;117.83;;;32.70;1.00;;;;;;4953863;29;20434;-82
2021/06/09 13:11:10;;;;;;;137.17;125.43;;;33.10;1.00;;;;;;4953744;29;20478;-87
2021/06/09 13:13:38;;;;;;;165.10;152.33;;;33.30;1.00;;;;;;4953895;28;20497;-83
2021/06/09 13:16:06;;;;;;;138.77;126.80;;;32.40;1.00;;;;;;4953561;29;20930;-83
2021/06/09 13:18:46;;;;;;;133.30;121.43;;;32.00;1.00;;;;;;4952818;28;20938;-82
2021/06/09 13:28:22;;;;;;;111.97;101.07;;;32.60;1.00;;;;;;4947665;28;20433;-87
2021/06/09 13:31:07;;;;;;;122.13;110.73;;;33.80;1.00;;;;;;4954310;29;20458;-85
2021/06/09 13:40:22;;;;;;;127.07;115.43;;;33.20;1.00;;;;;;5100508;23;20458;-80
2021/06/09 13:42:56;;;;;;;146.87;134.40;;;32.30;1.00;;;;;;4973994;28;20429;-80
2021/06/09 13:45:24;;;;;;;113.33;102.50;;;30.90;1.00;;;;;;4974113;28;20457;-80
2021/06/09 13:48:01;;;;;;;101.23;90.67;;;30.40;1.00;;;;;;4972605;28;20528;-80
2021/06/09 13:50:28;;;;;;;88.70;74.20;;;29.50;1.00;;;;;;4972978;28;20799;-79
2021/06/09 13:53:00;;;;;;;86.17;63.70;;;28.60;1.00;;;;;;4973303;28;20487;-79
2021/06/09 13:55:48;;;;;;;77.23;40.83;;;27.70;1.00;;;;;;4973408;28;20457;-85
2021/06/09 13:58:19;;;;;;;72.07;25.27;;;27.30;1.00;;;;;;4973582;28;20425;-85
2021/06/09 14:00:46;;;;;;;74.70;22.70;;;27.30;1.00;;;;;;4974016;28;20463;-84
2021/06/09 14:03:15;;;;;;;70.63;23.20;;;27.30;1.00;;;;;;4972461;28;20429;-85
2021/06/09 14:05:42;;;;;;;69.67;21.53;;;27.90;1.00;;;;;;4973900;28;20441;-89
2021/06/09 14:08:10;;;;;;;72.50;20.27;;;28.40;1.00;;;;;;4973448;28;20465;-87
2021/06/09 14:10:39;;;;;;;68.17;21.60;;;29.10;1.00;;;;;;4973721;28;21028;-87